| time (UTC) | temp C | wind direction | speed KPH | gust KPH | rain 1hr cm | rain 24hr cm | rain mn cm | humidity % | barometer mb |
| 20260902163918 | 29 | 0.0 | 0.0 | 0.00 | 0.00 | 0.00 | 31 | 1011.7 | |
| 20260902162918 | 29 | 0.0 | 0.0 | 0.00 | 0.00 | 0.00 | 30 | 1011.8 | |
| 20260902161919 | 29 | 0.0 | 0.0 | 0.00 | 0.00 | 0.00 | 29 | 1011.5 | |
| 20260902160919 | 30 | 0.0 | 0.0 | 0.00 | 0.00 | 0.00 | 28 | 1011.5 | |
| 20260902155918 | 30 | 0.0 | 0.0 | 0.00 | 0.00 | 0.00 | 28 | 1011.2 | |
| 20260902154918 | 30 | 0.0 | 0.0 | 0.00 | 0.00 | 0.00 | 28 | 1011.1 | |
| 20260902153918 | 30 | 0.0 | 0.0 | 0.00 | 0.00 | 0.00 | 28 | 1011.0 | |
| 20260902152918 | 30 | 0.0 | 0.0 | 0.00 | 0.00 | 0.00 | 26 | 1010.9 | |
| 20260902151918 | 30 | 0.0 | 0.0 | 0.00 | 0.00 | 0.00 | 26 | 1011.1 | |
| 20260902150919 | 30 | 0.0 | 0.0 | 0.00 | 0.00 | 0.00 | 26 | 1011.1 | |
| 20260902145917 | 30 | 0.0 | 0.0 | 0.00 | 0.00 | 0.00 | 27 | 1010.9 | |
| 20260902144919 | 30 | 0.0 | 0.0 | 0.00 | 0.00 | 0.00 | 26 | 1010.5 | |
| 20260902143918 | 31 | 0.0 | 0.0 | 0.00 | 0.00 | 0.00 | 26 | 1010.5 | |
| 20260902142919 | 31 | 0.0 | 0.0 | 0.00 | 0.00 | 0.00 | 26 | 1010.9 | |
| 20260902141919 | 31 | 0.0 | 0.0 | 0.00 | 0.00 | 0.00 | 25 | 1010.8 | |
| 20260902140918 | 31 | 0.0 | 0.0 | 0.00 | 0.00 | 0.00 | 26 | 1011.1 | |
| 20260902135919 | 31 | 0.0 | 0.0 | 0.00 | 0.00 | 0.00 | 24 | 1011.1 | |
| 20260902134919 | 31 | 0.0 | 0.0 | 0.00 | 0.00 | 0.00 | 24 | 1011.1 | |
| 20260902133918 | 31 | 0.0 | 0.0 | 0.00 | 0.00 | 0.00 | 24 | 1010.8 | |
| 20260902132920 | 31 | 0.0 | 0.0 | 0.00 | 0.00 | 0.00 | 25 | 1011.2 | |
| 20260902131918 | 31 | 0.0 | 0.0 | 0.00 | 0.00 | 0.00 | 24 | 1011.4 | |
| 20260902130918 | 30 | 0.0 | 0.0 | 0.00 | 0.00 | 0.00 | 24 | 1011.6 | |
| 20260902125918 | 31 | 0.0 | 0.0 | 0.00 | 0.00 | 0.00 | 24 | 1011.7 | |
| 20260902124919 | 31 | 0.0 | 0.0 | 0.00 | 0.00 | 0.00 | 24 | 1011.7 | |
| 20260902123919 | 31 | 0.0 | 0.0 | 0.00 | 0.00 | 0.00 | 24 | 1011.8 | |
| 20260902122918 | 31 | 0.0 | 0.0 | 0.00 | 0.00 | 0.00 | 25 | 1012.0 | |
| 20260902121919 | 31 | 0.0 | 0.0 | 0.00 | 0.00 | 0.00 | 25 | 1011.9 | |
| 20260902120918 | 31 | 0.0 | 0.0 | 0.00 | 0.00 | 0.00 | 26 | 1012.1 | |
| 20260902115918 | 31 | 0.0 | 0.0 | 0.00 | 0.00 | 0.00 | 26 | 1012.4 | |
| 20260902114919 | 31 | 0.0 | 0.0 | 0.00 | 0.00 | 0.00 | 27 | 1012.6 | |
| 20260902113919 | 30 | 0.0 | 0.0 | 0.00 | 0.00 | 0.00 | 26 | 1012.5 | |
| 20260902112918 | 30 | 0.0 | 0.0 | 0.00 | 0.00 | 0.00 | 26 | 1012.8 | |
| 20260902111918 | 30 | 0.0 | 0.0 | 0.00 | 0.00 | 0.00 | 26 | 1013.0 | |
| 20260902110918 | 30 | 0.0 | 0.0 | 0.00 | 0.00 | 0.00 | 26 | 1013.1 | |
| 20260902105918 | 31 | 0.0 | 0.0 | 0.00 | 0.00 | 0.00 | 25 | 1013.1 | |
| 20260902104918 | 31 | 0.0 | 0.0 | 0.00 | 0.00 | 0.00 | 26 | 1013.1 | |
| 20260902103918 | 31 | 0.0 | 0.0 | 0.00 | 0.00 | 0.00 | 28 | 1013.4 | |
| 20260902102918 | 31 | 0.0 | 0.0 | 0.00 | 0.00 | 0.00 | 27 | 1013.4 | |
| 20260902101918 | 31 | 0.0 | 0.0 | 0.00 | 0.00 | 0.00 | 26 | 1013.6 | |
| 20260902100918 | 32 | 0.0 | 0.0 | 0.00 | 0.00 | 0.00 | 26 | 1013.5 | |
| 20260902095918 | 31 | 0.0 | 0.0 | 0.00 | 0.00 | 0.00 | 28 | 1013.8 | |
| 20260902094918 | 32 | 0.0 | 0.0 | 0.00 | 0.00 | 0.00 | 26 | 1013.6 | |
| 20260902093919 | 33 | 0.0 | 0.0 | 0.00 | 0.00 | 0.00 | 19 | 1013.3 | |
| 20260902092918 | 35 | 0.0 | 0.0 | 0.00 | 0.00 | 0.00 | 18 | 1013.1 | |
| 20260902091919 | 35 | 0.0 | 0.0 | 0.00 | 0.00 | 0.00 | 18 | 1013.3 | |
| 20260902090918 | 33 | 0.0 | 0.0 | 0.00 | 0.00 | 0.00 | 19 | 1013.7 | |
| 20260902085918 | 35 | 0.0 | 0.0 | 0.00 | 0.00 | 0.00 | 16 | 1013.5 | |
| 20260902084918 | 35 | 0.0 | 0.0 | 0.00 | 0.00 | 0.00 | 19 | 1013.6 | |
| 20260902083919 | 35 | 0.0 | 0.0 | 0.00 | 0.00 | 0.00 | 19 | 1013.5 | |
| 20260902082918 | 34 | 0.0 | 0.0 | 0.00 | 0.00 | 0.00 | 20 | 1013.6 | |
| 20260902081919 | 32 | 0.0 | 0.0 | 0.00 | 0.00 | 0.00 | 25 | 1014.1 | |
| 20260902080919 | 33 | 0.0 | 0.0 | 0.00 | 0.00 | 0.00 | 20 | 1013.7 | |
| 20260902075918 | 35 | 0.0 | 0.0 | 0.00 | 0.00 | 0.00 | 20 | 1013.4 | |
| 20260902074919 | 34 | 0.0 | 0.0 | 0.00 | 0.00 | 0.00 | 19 | 1013.6 | |
| 20260902073918 | 34 | 0.0 | 0.0 | 0.00 | 0.00 | 0.00 | 20 | 1013.5 | |
| 20260902072918 | 34 | 0.0 | 0.0 | 0.00 | 0.00 | 0.00 | 20 | 1013.4 | |
| 20260902071918 | 33 | 0.0 | 0.0 | 0.00 | 0.00 | 0.00 | 20 | 1013.8 | |
| 20260902070918 | 33 | 0.0 | 0.0 | 0.00 | 0.00 | 0.00 | 22 | 1013.8 | |
| 20260902065919 | 33 | 0.0 | 0.0 | 0.00 | 0.00 | 0.00 | 20 | 1013.9 | |
| 20260902064918 | 32 | 0.0 | 0.0 | 0.00 | 0.00 | 0.00 | 23 | 1013.9 | |
| 20260902063918 | 32 | 0.0 | 0.0 | 0.00 | 0.00 | 0.00 | 21 | 1013.6 | |
| 20260902062918 | 34 | 0.0 | 0.0 | 0.00 | 0.00 | 0.00 | 19 | 1013.3 | |
| 20260902061918 | 32 | 0.0 | 0.0 | 0.00 | 0.00 | 0.00 | 21 | 1013.8 | |
| 20260902060918 | 32 | 0.0 | 0.0 | 0.00 | 0.00 | 0.00 | 24 | 1013.8 | |
| 20260902055918 | 32 | 0.0 | 0.0 | 0.00 | 0.00 | 0.00 | 25 | 1014.0 | |
| 20260902045540 | 27 | 0.0 | 0.0 | 0.00 | 0.00 | 0.00 | 38 | 1015.5 | |
| 20260902044540 | 26 | 0.0 | 0.0 | 0.00 | 0.00 | 0.00 | 41 | 1015.7 | |
| 20260902043539 | 25 | 0.0 | 0.0 | 0.00 | 0.00 | 0.00 | 44 | 1016.0 | |
| 20260902042541 | 25 | 0.0 | 0.0 | 0.00 | 0.00 | 0.00 | 45 | 1016.1 | |
| 20260902041543 | 24 | 0.0 | 0.0 | 0.00 | 0.00 | 0.00 | 46 | 1016.0 | |
| 20260902040540 | 25 | 0.0 | 0.0 | 0.00 | 0.00 | 0.00 | 46 | 1015.8 | |
| 20260902035539 | 25 | 0.0 | 0.0 | 0.00 | 0.00 | 0.00 | 46 | 1015.7 | |
| 20260902034540 | 25 | 0.0 | 0.0 | 0.00 | 0.00 | 0.00 | 46 | 1015.7 | |
| 20260902033541 | 25 | 0.0 | 0.0 | 0.00 | 0.00 | 0.00 | 45 | 1015.5 | |
| 20260902032540 | 25 | 0.0 | 0.0 | 0.00 | 0.00 | 0.00 | 44 | 1015.5 | |
| 20260902031542 | 25 | 0.0 | 0.0 | 0.00 | 0.00 | 0.00 | 44 | 1015.5 | |
| 20260902030540 | 25 | 0.0 | 0.0 | 0.00 | 0.00 | 0.00 | 43 | 1015.4 | |
| 20260902025540 | 25 | 0.0 | 0.0 | 0.00 | 0.00 | 0.00 | 43 | 1015.4 | |
| 20260902024540 | 25 | 0.0 | 0.0 | 0.00 | 0.00 | 0.00 | 43 | 1015.4 | |
| 20260902023540 | 25 | 0.0 | 0.0 | 0.00 | 0.00 | 0.00 | 41 | 1015.4 | |
| 20260902022540 | 25 | 0.0 | 0.0 | 0.00 | 0.00 | 0.00 | 41 | 1015.2 | |
| 20260902021539 | 25 | 0.0 | 0.0 | 0.00 | 0.00 | 0.00 | 41 | 1015.1 | |
| 20260902020540 | 25 | 0.0 | 0.0 | 0.00 | 0.00 | 0.00 | 42 | 1015.1 | |
| 20260902015540 | 25 | 0.0 | 0.0 | 0.00 | 0.00 | 0.00 | 42 | 1015.1 | |
| 20260902014540 | 25 | 0.0 | 0.0 | 0.00 | 0.00 | 0.00 | 44 | 1014.9 | |
| 20260902013540 | 25 | 0.0 | 0.0 | 0.00 | 0.00 | 0.00 | 47 | 1015.1 | |
| 20260902012541 | 25 | 0.0 | 0.0 | 0.00 | 0.00 | 0.00 | 46 | 1014.9 | |
| 20260902011540 | 25 | 0.0 | 0.0 | 0.00 | 0.00 | 0.00 | 46 | 1014.8 | |
| 20260902010540 | 25 | 0.0 | 0.0 | 0.00 | 0.00 | 0.00 | 45 | 1014.8 | |
| 20260902005539 | 25 | 0.0 | 0.0 | 0.00 | 0.00 | 0.00 | 43 | 1014.8 | |
| 20260902004539 | 25 | 0.0 | 0.0 | 0.00 | 0.00 | 0.00 | 42 | 1014.8 | |
| 20260902003540 | 25 | 0.0 | 0.0 | 0.00 | 0.00 | 0.00 | 42 | 1014.9 | |
| 20260902002540 | 25 | 0.0 | 0.0 | 0.00 | 0.00 | 0.00 | 43 | 1015.0 | |
| 20260902001540 | 25 | 0.0 | 0.0 | 0.00 | 0.00 | 0.00 | 43 | 1015.0 | |
| 20260902000540 | 25 | 0.0 | 0.0 | 0.00 | 0.00 | 0.00 | 44 | 1015.0 | |
| 20260901235540 | 25 | 0.0 | 0.0 | 0.00 | 0.00 | 0.00 | 44 | 1014.9 | |
| 20260901234540 | 25 | 0.0 | 0.0 | 0.00 | 0.00 | 0.00 | 44 | 1014.9 | |
| 20260901233540 | 25 | 0.0 | 0.0 | 0.00 | 0.00 | 0.00 | 44 | 1014.8 | |
| 20260901232540 | 25 | 0.0 | 0.0 | 0.00 | 0.00 | 0.00 | 44 | 1014.8 | |
| 20260901231540 | 25 | 0.0 | 0.0 | 0.00 | 0.00 | 0.00 | 44 | 1014.7 | |
| 20260901230540 | 25 | 0.0 | 0.0 | 0.00 | 0.00 | 0.00 | 44 | 1014.6 | |
| 20260901225540 | 25 | 0.0 | 0.0 | 0.00 | 0.00 | 0.00 | 43 | 1014.7 | |
| 20260901224540 | 25 | 0.0 | 0.0 | 0.00 | 0.00 | 0.00 | 44 | 1014.6 | |
| 20260901223540 | 25 | 0.0 | 0.0 | 0.00 | 0.00 | 0.00 | 43 | 1014.6 | |
| 20260901222540 | 26 | 0.0 | 0.0 | 0.00 | 0.00 | 0.00 | 43 | 1014.4 | |
| 20260901221540 | 26 | 0.0 | 0.0 | 0.00 | 0.00 | 0.00 | 43 | 1014.4 | |
| 20260901220540 | 25 | 0.0 | 0.0 | 0.00 | 0.00 | 0.00 | 43 | 1014.6 | |
| 20260901215540 | 26 | 0.0 | 0.0 | 0.00 | 0.00 | 0.00 | 42 | 1014.6 | |
| 20260901214542 | 26 | 0.0 | 0.0 | 0.00 | 0.00 | 0.00 | 41 | 1014.4 | |
| 20260901213540 | 26 | 0.0 | 0.0 | 0.00 | 0.00 | 0.00 | 41 | 1014.4 | |
| 20260901212541 | 26 | 0.0 | 0.0 | 0.00 | 0.00 | 0.00 | 41 | 1014.2 | |
| 20260901211540 | 26 | 0.0 | 0.0 | 0.00 | 0.00 | 0.00 | 41 | 1014.2 | |
| 20260901210540 | 26 | 0.0 | 0.0 | 0.00 | 0.00 | 0.00 | 41 | 1014.2 | |
| 20260901205540 | 26 | 0.0 | 0.0 | 0.00 | 0.00 | 0.00 | 40 | 1014.1 | |
| 20260901204539 | 27 | 0.0 | 0.0 | 0.00 | 0.00 | 0.00 | 39 | 1014.0 | |
| 20260901203540 | 27 | 0.0 | 0.0 | 0.00 | 0.00 | 0.00 | 39 | 1014.0 | |
| 20260901202540 | 27 | 0.0 | 0.0 | 0.00 | 0.00 | 0.00 | 39 | 1014.0 | |
| 20260901201543 | 27 | 0.0 | 0.0 | 0.00 | 0.00 | 0.00 | 39 | 1013.9 | |
| 20260901200539 | 27 | 0.0 | 0.0 | 0.00 | 0.00 | 0.00 | 39 | 1013.9 | |
| 20260901195540 | 27 | 0.0 | 0.0 | 0.00 | 0.00 | 0.00 | 39 | 1013.7 | |
| 20260901194540 | 27 | 0.0 | 0.0 | 0.00 | 0.00 | 0.00 | 39 | 1013.7 | |
| 20260901193539 | 27 | 0.0 | 0.0 | 0.00 | 0.00 | 0.00 | 39 | 1013.6 | |
| 20260901192540 | 27 | 0.0 | 0.0 | 0.00 | 0.00 | 0.00 | 39 | 1013.6 | |
| 20260901191540 | 28 | 0.0 | 0.0 | 0.00 | 0.00 | 0.00 | 38 | 1013.4 | |
| 20260901190540 | 28 | 0.0 | 0.0 | 0.00 | 0.00 | 0.00 | 38 | 1013.5 | |
| 20260901185540 | 28 | 0.0 | 0.0 | 0.00 | 0.00 | 0.00 | 38 | 1013.4 | |
| 20260901184543 | 28 | 0.0 | 0.0 | 0.00 | 0.00 | 0.00 | 38 | 1013.1 | |
| 20260901183539 | 28 | 0.0 | 0.0 | 0.00 | 0.00 | 0.00 | 38 | 1013.1 | |
| 20260901182539 | 28 | 0.0 | 0.0 | 0.00 | 0.00 | 0.00 | 38 | 1013.0 | |
| 20260901181543 | 28 | 0.0 | 0.0 | 0.00 | 0.00 | 0.00 | 38 | 1012.7 | |
| 20260901180539 | 28 | 0.0 | 0.0 | 0.00 | 0.00 | 0.00 | 38 | 1012.6 | |
| 20260901175540 | 28 | 0.0 | 0.0 | 0.00 | 0.00 | 0.00 | 40 | 1012.2 | |
| 20260901174539 | 28 | 0.0 | 0.0 | 0.00 | 0.00 | 0.00 | 40 | 1012.1 | |
| 20260901173540 | 28 | 0.0 | 0.0 | 0.00 | 0.00 | 0.00 | 39 | 1011.8 | |
| 20260901172539 | 28 | 0.0 | 0.0 | 0.00 | 0.00 | 0.00 | 38 | 1011.8 | |
| 20260901171539 | 29 | 0.0 | 0.0 | 0.00 | 0.00 | 0.00 | 36 | 1011.7 | |
| 20260901170539 | 29 | 0.0 | 0.0 | 0.00 | 0.00 | 0.00 | 35 | 1011.5 | |
| 20260901165540 | 29 | 0.0 | 0.0 | 0.00 | 0.00 | 0.00 | 35 | 1011.2 |